sensor_id;sensor_type;location;lat;lon;timestamp;temperature;humidity
32348;DHT22;18821;44.800;10.326;2022-09-14T00:00:06;23.00;99.90
32348;DHT22;18821;44.800;10.326;2022-09-14T00:02:35;23.10;99.90
32348;DHT22;18821;44.800;10.326;2022-09-14T00:05:01;23.10;99.90
32348;DHT22;18821;44.800;10.326;2022-09-14T00:07:27;23.00;99.90
32348;DHT22;18821;44.800;10.326;2022-09-14T00:09:53;23.00;99.90
32348;DHT22;18821;44.800;10.326;2022-09-14T00:12:19;23.00;99.90
32348;DHT22;18821;44.800;10.326;2022-09-14T00:14:44;23.00;99.90
32348;DHT22;18821;44.800;10.326;2022-09-14T00:17:11;23.00;99.90
32348;DHT22;18821;44.800;10.326;2022-09-14T00:19:36;23.00;99.90
32348;DHT22;18821;44.800;10.326;2022-09-14T00:22:02;23.00;99.90
32348;DHT22;18821;44.800;10.326;2022-09-14T00:24:30;23.00;99.90
32348;DHT22;18821;44.800;10.326;2022-09-14T00:26:56;23.00;99.90
32348;DHT22;18821;44.800;10.326;2022-09-14T00:29:22;23.00;99.90
32348;DHT22;18821;44.800;10.326;2022-09-14T00:31:49;22.90;99.90
32348;DHT22;18821;44.800;10.326;2022-09-14T00:34:15;23.00;99.90
32348;DHT22;18821;44.800;10.326;2022-09-14T00:36:43;23.00;99.90
32348;DHT22;18821;44.800;10.326;2022-09-14T00:39:11;23.00;99.90
32348;DHT22;18821;44.800;10.326;2022-09-14T00:41:41;23.00;99.90
32348;DHT22;18821;44.800;10.326;2022-09-14T00:46:46;23.00;99.90
32348;DHT22;18821;44.800;10.326;2022-09-14T00:49:21;22.90;99.90
32348;DHT22;18821;44.800;10.326;2022-09-14T00:52:25;22.90;99.90
32348;DHT22;18821;44.800;10.326;2022-09-14T00:57:11;22.80;99.90
32348;DHT22;18821;44.800;10.326;2022-09-14T00:59:38;22.80;99.90
32348;DHT22;18821;44.800;10.326;2022-09-14T01:02:07;22.80;99.90
32348;DHT22;18821;44.800;10.326;2022-09-14T01:04:34;22.80;99.90
32348;DHT22;18821;44.800;10.326;2022-09-14T01:10:17;22.70;99.90
32348;DHT22;18821;44.800;10.326;2022-09-14T01:13:06;22.70;99.90
32348;DHT22;18821;44.800;10.326;2022-09-14T01:20:46;22.70;99.90
32348;DHT22;18821;44.800;10.326;2022-09-14T01:28:55;22.70;99.90
32348;DHT22;18821;44.800;10.326;2022-09-14T01:31:55;22.60;99.90
32348;DHT22;18821;44.800;10.326;2022-09-14T01:37:44;22.60;99.90
32348;DHT22;18821;44.800;10.326;2022-09-14T01:40:38;22.60;99.90
32348;DHT22;18821;44.800;10.326;2022-09-14T01:45:46;22.50;99.90
32348;DHT22;18821;44.800;10.326;2022-09-14T01:48:15;22.50;99.90
32348;DHT22;18821;44.800;10.326;2022-09-14T01:50:45;22.50;99.90
32348;DHT22;18821;44.800;10.326;2022-09-14T01:56:03;22.40;99.90
32348;DHT22;18821;44.800;10.326;2022-09-14T01:58:33;22.40;99.90
32348;DHT22;18821;44.800;10.326;2022-09-14T02:01:01;22.40;99.90
32348;DHT22;18821;44.800;10.326;2022-09-14T02:03:33;22.30;99.90
32348;DHT22;18821;44.800;10.326;2022-09-14T02:06:30;22.30;99.90
32348;DHT22;18821;44.800;10.326;2022-09-14T02:08:54;22.30;99.90
32348;DHT22;18821;44.800;10.326;2022-09-14T02:11:20;22.20;99.90
32348;DHT22;18821;44.800;10.326;2022-09-14T02:13:46;22.20;99.90
32348;DHT22;18821;44.800;10.326;2022-09-14T02:16:12;22.20;99.90
32348;DHT22;18821;44.800;10.326;2022-09-14T02:18:39;22.10;99.90
32348;DHT22;18821;44.800;10.326;2022-09-14T02:21:13;22.20;99.90
32348;DHT22;18821;44.800;10.326;2022-09-14T02:23:40;22.20;99.90
32348;DHT22;18821;44.800;10.326;2022-09-14T02:26:06;22.20;99.90
32348;DHT22;18821;44.800;10.326;2022-09-14T02:28:32;22.20;99.90
32348;DHT22;18821;44.800;10.326;2022-09-14T02:34:45;22.20;99.90
32348;DHT22;18821;44.800;10.326;2022-09-14T02:37:18;22.20;99.90
32348;DHT22;18821;44.800;10.326;2022-09-14T02:45:43;22.10;99.90
32348;DHT22;18821;44.800;10.326;2022-09-14T02:48:33;22.00;99.90
32348;DHT22;18821;44.800;10.326;2022-09-14T02:56:19;21.90;99.90
32348;DHT22;18821;44.800;10.326;2022-09-14T02:58:45;21.90;99.90
32348;DHT22;18821;44.800;10.326;2022-09-14T03:01:13;21.80;99.90
32348;DHT22;18821;44.800;10.326;2022-09-14T03:03:40;21.80;99.90
32348;DHT22;18821;44.800;10.326;2022-09-14T03:06:06;21.80;99.90
32348;DHT22;18821;44.800;10.326;2022-09-14T03:08:32;21.80;99.90
32348;DHT22;18821;44.800;10.326;2022-09-14T03:10:58;21.80;99.90
32348;DHT22;18821;44.800;10.326;2022-09-14T03:13:24;21.80;99.90
32348;DHT22;18821;44.800;10.326;2022-09-14T03:15:50;21.90;99.90
32348;DHT22;18821;44.800;10.326;2022-09-14T03:18:17;21.80;99.90
32348;DHT22;18821;44.800;10.326;2022-09-14T03:20:43;21.80;99.90
32348;DHT22;18821;44.800;10.326;2022-09-14T03:23:09;21.80;99.90
32348;DHT22;18821;44.800;10.326;2022-09-14T03:25:38;21.80;99.90
32348;DHT22;18821;44.800;10.326;2022-09-14T03:28:05;21.70;99.90
32348;DHT22;18821;44.800;10.326;2022-09-14T03:30:32;21.70;99.90
32348;DHT22;18821;44.800;10.326;2022-09-14T03:32:58;21.70;99.90
32348;DHT22;18821;44.800;10.326;2022-09-14T03:35:27;21.70;99.90
32348;DHT22;18821;44.800;10.326;2022-09-14T03:37:55;21.60;99.90
32348;DHT22;18821;44.800;10.326;2022-09-14T03:40:21;21.60;99.90
32348;DHT22;18821;44.800;10.326;2022-09-14T03:42:48;21.60;99.90
32348;DHT22;18821;44.800;10.326;2022-09-14T03:45:15;21.60;99.90
32348;DHT22;18821;44.800;10.326;2022-09-14T03:47:42;21.60;99.90
32348;DHT22;18821;44.800;10.326;2022-09-14T03:50:10;21.50;99.90
32348;DHT22;18821;44.800;10.326;2022-09-14T03:52:36;21.50;99.90
32348;DHT22;18821;44.800;10.326;2022-09-14T03:55:05;21.50;99.90
32348;DHT22;18821;44.800;10.326;2022-09-14T03:57:32;21.50;99.90
32348;DHT22;18821;44.800;10.326;2022-09-14T03:59:58;21.50;99.90
32348;DHT22;18821;44.800;10.326;2022-09-14T04:02:24;21.50;99.90
32348;DHT22;18821;44.800;10.326;2022-09-14T04:04:50;21.60;99.90
32348;DHT22;18821;44.800;10.326;2022-09-14T04:07:16;21.60;99.90
32348;DHT22;18821;44.800;10.326;2022-09-14T04:09:43;21.60;99.90
32348;DHT22;18821;44.800;10.326;2022-09-14T04:12:11;21.60;99.90
32348;DHT22;18821;44.800;10.326;2022-09-14T04:14:37;21.60;99.90
32348;DHT22;18821;44.800;10.326;2022-09-14T04:17:03;21.60;99.90
32348;DHT22;18821;44.800;10.326;2022-09-14T04:19:29;21.50;99.90
32348;DHT22;18821;44.800;10.326;2022-09-14T04:21:55;21.50;99.90
32348;DHT22;18821;44.800;10.326;2022-09-14T04:24:21;21.50;99.90
32348;DHT22;18821;44.800;10.326;2022-09-14T04:26:47;21.50;99.90
32348;DHT22;18821;44.800;10.326;2022-09-14T04:29:13;21.40;99.90
32348;DHT22;18821;44.800;10.326;2022-09-14T04:31:39;21.40;99.90
32348;DHT22;18821;44.800;10.326;2022-09-14T04:34:05;21.40;99.90
32348;DHT22;18821;44.800;10.326;2022-09-14T04:36:32;21.40;99.90
32348;DHT22;18821;44.800;10.326;2022-09-14T04:38:59;21.40;99.90
32348;DHT22;18821;44.800;10.326;2022-09-14T04:41:26;21.40;99.90
32348;DHT22;18821;44.800;10.326;2022-09-14T04:43:54;21.40;99.90
32348;DHT22;18821;44.800;10.326;2022-09-14T04:46:31;21.30;99.90
32348;DHT22;18821;44.800;10.326;2022-09-14T04:48:59;21.40;99.90
32348;DHT22;18821;44.800;10.326;2022-09-14T04:51:27;21.30;99.90
32348;DHT22;18821;44.800;10.326;2022-09-14T04:53:55;21.30;99.90
32348;DHT22;18821;44.800;10.326;2022-09-14T04:56:22;21.30;99.90
32348;DHT22;18821;44.800;10.326;2022-09-14T04:58:53;21.30;99.90
32348;DHT22;18821;44.800;10.326;2022-09-14T05:01:21;21.30;99.90
32348;DHT22;18821;44.800;10.326;2022-09-14T05:03:48;21.30;99.90
32348;DHT22;18821;44.800;10.326;2022-09-14T05:06:20;21.30;99.90
32348;DHT22;18821;44.800;10.326;2022-09-14T05:08:46;21.30;99.90
32348;DHT22;18821;44.800;10.326;2022-09-14T05:11:18;21.30;99.90
32348;DHT22;18821;44.800;10.326;2022-09-14T05:13:45;21.20;99.90
32348;DHT22;18821;44.800;10.326;2022-09-14T05:16:20;21.20;99.90
32348;DHT22;18821;44.800;10.326;2022-09-14T05:18:46;21.20;99.90
32348;DHT22;18821;44.800;10.326;2022-09-14T05:21:15;21.30;99.90
32348;DHT22;18821;44.800;10.326;2022-09-14T05:23:41;21.30;99.90
32348;DHT22;18821;44.800;10.326;2022-09-14T05:26:07;21.30;99.90
32348;DHT22;18821;44.800;10.326;2022-09-14T05:28:34;21.40;99.90
32348;DHT22;18821;44.800;10.326;2022-09-14T05:31:09;21.40;99.90
32348;DHT22;18821;44.800;10.326;2022-09-14T05:33:35;21.50;99.90
32348;DHT22;18821;44.800;10.326;2022-09-14T05:36:04;21.50;99.90
32348;DHT22;18821;44.800;10.326;2022-09-14T05:38:31;21.60;99.90
32348;DHT22;18821;44.800;10.326;2022-09-14T05:40:58;21.70;99.90
32348;DHT22;18821;44.800;10.326;2022-09-14T05:43:24;21.60;99.90
32348;DHT22;18821;44.800;10.326;2022-09-14T05:45:50;21.60;99.90
32348;DHT22;18821;44.800;10.326;2022-09-14T05:48:17;21.70;99.90
32348;DHT22;18821;44.800;10.326;2022-09-14T05:50:43;21.80;99.90
32348;DHT22;18821;44.800;10.326;2022-09-14T05:53:09;21.90;99.90
32348;DHT22;18821;44.800;10.326;2022-09-14T05:55:35;22.00;99.90
32348;DHT22;18821;44.800;10.326;2022-09-14T05:58:00;22.00;99.90
32348;DHT22;18821;44.800;10.326;2022-09-14T06:00:26;22.10;99.90
32348;DHT22;18821;44.800;10.326;2022-09-14T06:02:54;22.30;99.90
32348;DHT22;18821;44.800;10.326;2022-09-14T06:05:21;22.50;99.90
32348;DHT22;18821;44.800;10.326;2022-09-14T06:07:51;22.90;99.90
32348;DHT22;18821;44.800;10.326;2022-09-14T06:10:18;23.10;99.90
32348;DHT22;18821;44.800;10.326;2022-09-14T06:12:44;23.30;99.90
32348;DHT22;18821;44.800;10.326;2022-09-14T06:15:12;23.40;99.90
32348;DHT22;18821;44.800;10.326;2022-09-14T06:17:38;23.50;99.90
32348;DHT22;18821;44.800;10.326;2022-09-14T06:20:04;23.60;99.90
32348;DHT22;18821;44.800;10.326;2022-09-14T06:22:32;23.60;99.90
32348;DHT22;18821;44.800;10.326;2022-09-14T06:24:58;23.50;99.90
32348;DHT22;18821;44.800;10.326;2022-09-14T06:27:25;23.50;99.90
32348;DHT22;18821;44.800;10.326;2022-09-14T06:29:52;23.60;99.90
32348;DHT22;18821;44.800;10.326;2022-09-14T06:32:19;23.60;99.90
32348;DHT22;18821;44.800;10.326;2022-09-14T06:34:47;23.60;99.90
32348;DHT22;18821;44.800;10.326;2022-09-14T06:37:13;23.60;99.90
32348;DHT22;18821;44.800;10.326;2022-09-14T06:39:39;23.50;99.90
32348;DHT22;18821;44.800;10.326;2022-09-14T06:42:05;23.70;99.90
32348;DHT22;18821;44.800;10.326;2022-09-14T06:44:31;23.60;99.90
32348;DHT22;18821;44.800;10.326;2022-09-14T06:46:57;23.50;99.90
32348;DHT22;18821;44.800;10.326;2022-09-14T06:49:23;23.60;99.90
32348;DHT22;18821;44.800;10.326;2022-09-14T06:51:49;23.70;99.90
32348;DHT22;18821;44.800;10.326;2022-09-14T06:54:16;23.70;99.90
32348;DHT22;18821;44.800;10.326;2022-09-14T06:56:44;23.70;99.90
32348;DHT22;18821;44.800;10.326;2022-09-14T06:59:13;23.80;99.90
32348;DHT22;18821;44.800;10.326;2022-09-14T07:01:40;23.90;99.90
32348;DHT22;18821;44.800;10.326;2022-09-14T07:04:06;24.10;99.90
32348;DHT22;18821;44.800;10.326;2022-09-14T07:06:45;24.20;99.90
32348;DHT22;18821;44.800;10.326;2022-09-14T07:09:12;24.40;99.90
32348;DHT22;18821;44.800;10.326;2022-09-14T07:11:38;24.60;99.90
32348;DHT22;18821;44.800;10.326;2022-09-14T07:14:05;24.60;99.90
32348;DHT22;18821;44.800;10.326;2022-09-14T07:16:33;24.70;99.90
32348;DHT22;18821;44.800;10.326;2022-09-14T07:19:00;24.90;99.90
32348;DHT22;18821;44.800;10.326;2022-09-14T07:21:27;25.10;99.90
32348;DHT22;18821;44.800;10.326;2022-09-14T07:23:53;25.30;99.90
32348;DHT22;18821;44.800;10.326;2022-09-14T07:26:22;25.20;99.90
32348;DHT22;18821;44.800;10.326;2022-09-14T07:29:00;25.20;99.90
32348;DHT22;18821;44.800;10.326;2022-09-14T07:31:44;25.10;99.90
32348;DHT22;18821;44.800;10.326;2022-09-14T07:34:12;25.10;99.90
32348;DHT22;18821;44.800;10.326;2022-09-14T07:36:38;25.30;99.90
32348;DHT22;18821;44.800;10.326;2022-09-14T07:39:06;25.50;99.90
32348;DHT22;18821;44.800;10.326;2022-09-14T07:41:33;25.70;99.90
32348;DHT22;18821;44.800;10.326;2022-09-14T07:44:01;25.80;99.90
32348;DHT22;18821;44.800;10.326;2022-09-14T07:46:28;25.80;99.90
32348;DHT22;18821;44.800;10.326;2022-09-14T07:48:57;26.00;99.90
32348;DHT22;18821;44.800;10.326;2022-09-14T07:51:24;26.10;99.90
32348;DHT22;18821;44.800;10.326;2022-09-14T07:53:50;26.30;99.90
32348;DHT22;18821;44.800;10.326;2022-09-14T07:56:16;26.00;99.90
32348;DHT22;18821;44.800;10.326;2022-09-14T07:58:43;25.90;99.90
32348;DHT22;18821;44.800;10.326;2022-09-14T08:01:14;25.90;99.90
32348;DHT22;18821;44.800;10.326;2022-09-14T08:03:41;25.70;99.90
32348;DHT22;18821;44.800;10.326;2022-09-14T08:06:18;25.90;99.90
32348;DHT22;18821;44.800;10.326;2022-09-14T08:08:46;26.10;99.90
32348;DHT22;18821;44.800;10.326;2022-09-14T08:11:28;26.10;99.90
32348;DHT22;18821;44.800;10.326;2022-09-14T08:16:22;25.50;99.90
32348;DHT22;18821;44.800;10.326;2022-09-14T08:18:57;25.50;99.90
32348;DHT22;18821;44.800;10.326;2022-09-14T08:21:23;25.60;99.90
32348;DHT22;18821;44.800;10.326;2022-09-14T08:23:50;25.60;99.90
32348;DHT22;18821;44.800;10.326;2022-09-14T08:26:18;25.40;99.90
32348;DHT22;18821;44.800;10.326;2022-09-14T08:28:46;25.40;99.90
32348;DHT22;18821;44.800;10.326;2022-09-14T08:31:17;25.40;99.90
32348;DHT22;18821;44.800;10.326;2022-09-14T08:33:47;25.60;99.90
32348;DHT22;18821;44.800;10.326;2022-09-14T08:36:16;25.70;99.90
32348;DHT22;18821;44.800;10.326;2022-09-14T08:38:43;25.80;99.90
32348;DHT22;18821;44.800;10.326;2022-09-14T08:41:26;25.80;99.90
32348;DHT22;18821;44.800;10.326;2022-09-14T08:43:53;25.80;99.90
32348;DHT22;18821;44.800;10.326;2022-09-14T08:46:35;25.90;99.90
32348;DHT22;18821;44.800;10.326;2022-09-14T08:49:10;25.80;99.90
32348;DHT22;18821;44.800;10.326;2022-09-14T08:51:37;25.80;99.90
32348;DHT22;18821;44.800;10.326;2022-09-14T08:54:04;25.90;99.90
32348;DHT22;18821;44.800;10.326;2022-09-14T08:56:34;26.00;99.90
32348;DHT22;18821;44.800;10.326;2022-09-14T09:08:05;26.10;99.90
32348;DHT22;18821;44.800;10.326;2022-09-14T09:10:35;26.30;99.90
32348;DHT22;18821;44.800;10.326;2022-09-14T09:13:04;26.30;99.90
32348;DHT22;18821;44.800;10.326;2022-09-14T09:15:48;26.20;99.90
32348;DHT22;18821;44.800;10.326;2022-09-14T09:18:22;26.10;99.90
32348;DHT22;18821;44.800;10.326;2022-09-14T09:20:56;26.10;99.90
32348;DHT22;18821;44.800;10.326;2022-09-14T09:23:28;25.80;99.90
32348;DHT22;18821;44.800;10.326;2022-09-14T09:26:15;25.80;99.90
32348;DHT22;18821;44.800;10.326;2022-09-14T09:28:46;25.70;99.90
32348;DHT22;18821;44.800;10.326;2022-09-14T09:31:15;25.90;99.90
32348;DHT22;18821;44.800;10.326;2022-09-14T09:34:24;26.00;99.90
32348;DHT22;18821;44.800;10.326;2022-09-14T09:36:54;26.00;99.90
32348;DHT22;18821;44.800;10.326;2022-09-14T09:39:22;26.10;99.90
32348;DHT22;18821;44.800;10.326;2022-09-14T09:44:27;26.10;99.90
32348;DHT22;18821;44.800;10.326;2022-09-14T09:47:02;26.00;99.90
32348;DHT22;18821;44.800;10.326;2022-09-14T09:49:35;26.10;99.90
32348;DHT22;18821;44.800;10.326;2022-09-14T09:52:14;26.10;99.90
32348;DHT22;18821;44.800;10.326;2022-09-14T09:54:47;26.10;99.90
32348;DHT22;18821;44.800;10.326;2022-09-14T09:57:21;26.20;99.90
32348;DHT22;18821;44.800;10.326;2022-09-14T09:59:48;26.30;99.90
32348;DHT22;18821;44.800;10.326;2022-09-14T10:02:29;26.40;99.90
32348;DHT22;18821;44.800;10.326;2022-09-14T10:07:33;26.70;99.90
32348;DHT22;18821;44.800;10.326;2022-09-14T10:10:40;26.80;99.90
32348;DHT22;18821;44.800;10.326;2022-09-14T10:13:37;26.90;99.90
32348;DHT22;18821;44.800;10.326;2022-09-14T10:16:07;27.10;99.90
32348;DHT22;18821;44.800;10.326;2022-09-14T10:18:45;27.20;99.90
32348;DHT22;18821;44.800;10.326;2022-09-14T10:21:11;27.20;99.90
32348;DHT22;18821;44.800;10.326;2022-09-14T10:23:38;27.10;99.90
32348;DHT22;18821;44.800;10.326;2022-09-14T10:28:40;26.90;99.90
32348;DHT22;18821;44.800;10.326;2022-09-14T10:33:53;26.80;99.90
32348;DHT22;18821;44.800;10.326;2022-09-14T10:41:45;26.80;99.90
32348;DHT22;18821;44.800;10.326;2022-09-14T10:44:22;26.80;99.90
32348;DHT22;18821;44.800;10.326;2022-09-14T10:52:18;26.90;99.90
32348;DHT22;18821;44.800;10.326;2022-09-14T11:00:57;27.20;99.90
32348;DHT22;18821;44.800;10.326;2022-09-14T11:08:53;27.10;99.90
32348;DHT22;18821;44.800;10.326;2022-09-14T11:17:32;27.40;99.90
32348;DHT22;18821;44.800;10.326;2022-09-14T11:25:46;28.40;99.90
32348;DHT22;18821;44.800;10.326;2022-09-14T11:28:19;28.60;99.90
32348;DHT22;18821;44.800;10.326;2022-09-14T11:30:51;28.60;99.90
32348;DHT22;18821;44.800;10.326;2022-09-14T11:36:06;28.60;99.90
32348;DHT22;18821;44.800;10.326;2022-09-14T11:38:46;28.70;99.90
32348;DHT22;18821;44.800;10.326;2022-09-14T11:41:23;28.70;99.90
32348;DHT22;18821;44.800;10.326;2022-09-14T11:44:01;28.80;99.90
32348;DHT22;18821;44.800;10.326;2022-09-14T11:46:35;28.70;99.90
32348;DHT22;18821;44.800;10.326;2022-09-14T11:49:24;28.80;99.90
32348;DHT22;18821;44.800;10.326;2022-09-14T11:52:01;29.00;99.90
32348;DHT22;18821;44.800;10.326;2022-09-14T11:54:27;29.10;99.90
32348;DHT22;18821;44.800;10.326;2022-09-14T11:56:59;28.80;99.90
32348;DHT22;18821;44.800;10.326;2022-09-14T12:15:34;29.20;99.90
32348;DHT22;18821;44.800;10.326;2022-09-14T12:28:47;29.70;99.90
32348;DHT22;18821;44.800;10.326;2022-09-14T12:32:23;29.80;99.90
32348;DHT22;18821;44.800;10.326;2022-09-14T12:39:26;30.00;99.90
32348;DHT22;18821;44.800;10.326;2022-09-14T12:49:52;30.10;99.90
32348;DHT22;18821;44.800;10.326;2022-09-14T12:55:23;29.40;99.90
32348;DHT22;18821;44.800;10.326;2022-09-14T13:01:05;29.60;99.90
32348;DHT22;18821;44.800;10.326;2022-09-14T13:03:53;29.80;99.90
32348;DHT22;18821;44.800;10.326;2022-09-14T13:06:22;29.80;99.90
32348;DHT22;18821;44.800;10.326;2022-09-14T13:08:55;30.00;99.90
32348;DHT22;18821;44.800;10.326;2022-09-14T13:11:35;30.20;99.90
32348;DHT22;18821;44.800;10.326;2022-09-14T13:14:01;30.00;99.90
32348;DHT22;18821;44.800;10.326;2022-09-14T13:16:43;29.70;99.90
32348;DHT22;18821;44.800;10.326;2022-09-14T13:21:52;29.60;99.90
32348;DHT22;18821;44.800;10.326;2022-09-14T13:24:46;29.40;99.90
32348;DHT22;18821;44.800;10.326;2022-09-14T13:29:55;29.90;99.90
32348;DHT22;18821;44.800;10.326;2022-09-14T13:32:22;30.20;99.90
32348;DHT22;18821;44.800;10.326;2022-09-14T13:34:48;30.10;99.90
32348;DHT22;18821;44.800;10.326;2022-09-14T13:37:15;30.00;99.90
32348;DHT22;18821;44.800;10.326;2022-09-14T13:39:53;29.90;99.90
32348;DHT22;18821;44.800;10.326;2022-09-14T13:42:20;29.90;99.90
32348;DHT22;18821;44.800;10.326;2022-09-14T13:44:47;29.80;99.90
32348;DHT22;18821;44.800;10.326;2022-09-14T13:47:21;29.60;99.90
32348;DHT22;18821;44.800;10.326;2022-09-14T13:49:49;29.70;99.90
32348;DHT22;18821;44.800;10.326;2022-09-14T13:52:17;29.80;99.90
32348;DHT22;18821;44.800;10.326;2022-09-14T13:54:44;29.90;99.90
32348;DHT22;18821;44.800;10.326;2022-09-14T13:57:22;29.70;99.90
32348;DHT22;18821;44.800;10.326;2022-09-14T14:00:18;29.70;99.90
32348;DHT22;18821;44.800;10.326;2022-09-14T14:02:49;29.60;99.90
32348;DHT22;18821;44.800;10.326;2022-09-14T14:05:33;29.50;99.90
32348;DHT22;18821;44.800;10.326;2022-09-14T14:08:02;29.30;99.90
32348;DHT22;18821;44.800;10.326;2022-09-14T14:10:36;29.40;99.90
32348;DHT22;18821;44.800;10.326;2022-09-14T14:13:03;29.20;99.90
32348;DHT22;18821;44.800;10.326;2022-09-14T14:15:41;29.00;99.90
32348;DHT22;18821;44.800;10.326;2022-09-14T14:18:40;28.90;99.90
32348;DHT22;18821;44.800;10.326;2022-09-14T14:23:35;28.80;99.90
32348;DHT22;18821;44.800;10.326;2022-09-14T14:26:28;28.90;99.90
32348;DHT22;18821;44.800;10.326;2022-09-14T14:28:54;28.80;99.90
32348;DHT22;18821;44.800;10.326;2022-09-14T14:31:32;28.80;99.90
32348;DHT22;18821;44.800;10.326;2022-09-14T14:33:58;29.10;99.90
32348;DHT22;18821;44.800;10.326;2022-09-14T14:36:26;29.10;99.90
32348;DHT22;18821;44.800;10.326;2022-09-14T14:38:51;29.20;99.90
32348;DHT22;18821;44.800;10.326;2022-09-14T14:41:19;29.00;99.90
32348;DHT22;18821;44.800;10.326;2022-09-14T14:43:47;29.00;99.90
32348;DHT22;18821;44.800;10.326;2022-09-14T14:46:15;29.00;99.90
32348;DHT22;18821;44.800;10.326;2022-09-14T14:48:42;28.90;99.90
32348;DHT22;18821;44.800;10.326;2022-09-14T14:51:12;29.00;99.90
32348;DHT22;18821;44.800;10.326;2022-09-14T14:53:41;29.10;99.90
32348;DHT22;18821;44.800;10.326;2022-09-14T14:56:10;29.00;99.90
32348;DHT22;18821;44.800;10.326;2022-09-14T14:58:44;29.00;99.90
32348;DHT22;18821;44.800;10.326;2022-09-14T15:01:10;29.10;99.90
32348;DHT22;18821;44.800;10.326;2022-09-14T15:03:36;29.10;99.90
32348;DHT22;18821;44.800;10.326;2022-09-14T15:06:14;29.20;99.90
32348;DHT22;18821;44.800;10.326;2022-09-14T15:08:40;29.20;99.90
32348;DHT22;18821;44.800;10.326;2022-09-14T15:11:16;29.10;99.90
32348;DHT22;18821;44.800;10.326;2022-09-14T15:13:44;29.00;99.90
32348;DHT22;18821;44.800;10.326;2022-09-14T15:16:10;29.00;99.90
32348;DHT22;18821;44.800;10.326;2022-09-14T15:18:36;28.80;99.90
32348;DHT22;18821;44.800;10.326;2022-09-14T15:21:03;28.80;99.90
32348;DHT22;18821;44.800;10.326;2022-09-14T15:23:29;28.70;99.90
32348;DHT22;18821;44.800;10.326;2022-09-14T15:25:55;28.70;99.90
32348;DHT22;18821;44.800;10.326;2022-09-14T15:28:21;28.60;99.90
32348;DHT22;18821;44.800;10.326;2022-09-14T15:30:47;28.70;99.90
32348;DHT22;18821;44.800;10.326;2022-09-14T15:33:13;28.80;99.90
32348;DHT22;18821;44.800;10.326;2022-09-14T15:35:38;28.90;99.90
32348;DHT22;18821;44.800;10.326;2022-09-14T15:38:05;29.00;99.90
32348;DHT22;18821;44.800;10.326;2022-09-14T15:40:31;28.60;99.90
32348;DHT22;18821;44.800;10.326;2022-09-14T15:42:57;27.80;99.90
32348;DHT22;18821;44.800;10.326;2022-09-14T15:45:25;27.50;99.90
32348;DHT22;18821;44.800;10.326;2022-09-14T15:47:51;27.10;99.90
32348;DHT22;18821;44.800;10.326;2022-09-14T15:50:17;27.00;99.90
32348;DHT22;18821;44.800;10.326;2022-09-14T15:52:43;27.00;99.90
32348;DHT22;18821;44.800;10.326;2022-09-14T15:55:10;26.90;99.90
32348;DHT22;18821;44.800;10.326;2022-09-14T15:57:37;26.80;99.90
32348;DHT22;18821;44.800;10.326;2022-09-14T16:00:07;26.70;99.90
32348;DHT22;18821;44.800;10.326;2022-09-14T16:02:39;26.70;99.90
32348;DHT22;18821;44.800;10.326;2022-09-14T16:05:05;26.60;99.90
32348;DHT22;18821;44.800;10.326;2022-09-14T16:07:32;26.60;99.90
32348;DHT22;18821;44.800;10.326;2022-09-14T16:09:59;26.70;99.90
32348;DHT22;18821;44.800;10.326;2022-09-14T16:12:25;26.80;99.90
32348;DHT22;18821;44.800;10.326;2022-09-14T16:14:51;27.00;99.90
32348;DHT22;18821;44.800;10.326;2022-09-14T16:17:16;27.00;99.90
32348;DHT22;18821;44.800;10.326;2022-09-14T16:19:42;27.10;99.90
32348;DHT22;18821;44.800;10.326;2022-09-14T16:22:08;27.20;99.90
32348;DHT22;18821;44.800;10.326;2022-09-14T16:24:34;27.20;99.90
32348;DHT22;18821;44.800;10.326;2022-09-14T16:27:00;27.30;99.90
32348;DHT22;18821;44.800;10.326;2022-09-14T16:29:26;27.30;99.90
32348;DHT22;18821;44.800;10.326;2022-09-14T16:31:52;27.40;99.90
32348;DHT22;18821;44.800;10.326;2022-09-14T16:34:20;27.40;99.90
32348;DHT22;18821;44.800;10.326;2022-09-14T16:36:48;27.50;99.90
32348;DHT22;18821;44.800;10.326;2022-09-14T16:39:19;27.50;99.90
32348;DHT22;18821;44.800;10.326;2022-09-14T16:41:47;27.50;99.90
32348;DHT22;18821;44.800;10.326;2022-09-14T16:44:21;27.50;99.90
32348;DHT22;18821;44.800;10.326;2022-09-14T16:46:48;27.50;99.90
32348;DHT22;18821;44.800;10.326;2022-09-14T16:49:15;27.40;99.90
32348;DHT22;18821;44.800;10.326;2022-09-14T16:51:41;27.50;99.90
32348;DHT22;18821;44.800;10.326;2022-09-14T16:54:07;27.40;99.90
32348;DHT22;18821;44.800;10.326;2022-09-14T16:56:35;27.40;99.90
32348;DHT22;18821;44.800;10.326;2022-09-14T16:59:02;27.40;99.90
32348;DHT22;18821;44.800;10.326;2022-09-14T17:01:30;27.40;99.90
32348;DHT22;18821;44.800;10.326;2022-09-14T17:04:02;27.30;99.90
32348;DHT22;18821;44.800;10.326;2022-09-14T17:06:31;27.30;99.90
32348;DHT22;18821;44.800;10.326;2022-09-14T17:09:24;27.30;99.90
32348;DHT22;18821;44.800;10.326;2022-09-14T17:11:51;27.20;99.90
32348;DHT22;18821;44.800;10.326;2022-09-14T17:14:22;27.20;99.90
32348;DHT22;18821;44.800;10.326;2022-09-14T17:16:48;27.20;99.90
32348;DHT22;18821;44.800;10.326;2022-09-14T17:19:15;27.10;99.90
32348;DHT22;18821;44.800;10.326;2022-09-14T17:21:42;27.20;99.90
32348;DHT22;18821;44.800;10.326;2022-09-14T17:24:09;27.20;99.90
32348;DHT22;18821;44.800;10.326;2022-09-14T17:26:35;27.20;99.90
32348;DHT22;18821;44.800;10.326;2022-09-14T17:29:03;27.20;99.90
32348;DHT22;18821;44.800;10.326;2022-09-14T17:31:32;27.20;99.90
32348;DHT22;18821;44.800;10.326;2022-09-14T17:34:00;27.20;99.90
32348;DHT22;18821;44.800;10.326;2022-09-14T17:36:26;27.20;99.90
32348;DHT22;18821;44.800;10.326;2022-09-14T17:38:55;27.20;99.90
32348;DHT22;18821;44.800;10.326;2022-09-14T17:41:24;27.10;99.90
32348;DHT22;18821;44.800;10.326;2022-09-14T17:43:54;27.10;99.90
32348;DHT22;18821;44.800;10.326;2022-09-14T17:46:21;27.10;99.90
32348;DHT22;18821;44.800;10.326;2022-09-14T17:48:48;27.10;99.90
32348;DHT22;18821;44.800;10.326;2022-09-14T17:51:22;27.10;99.90
32348;DHT22;18821;44.800;10.326;2022-09-14T17:53:51;27.20;99.90
32348;DHT22;18821;44.800;10.326;2022-09-14T17:56:20;27.20;99.90
32348;DHT22;18821;44.800;10.326;2022-09-14T17:58:49;27.20;99.90
32348;DHT22;18821;44.800;10.326;2022-09-14T18:01:21;27.20;99.90
32348;DHT22;18821;44.800;10.326;2022-09-14T18:03:52;27.20;99.90
32348;DHT22;18821;44.800;10.326;2022-09-14T18:06:19;27.10;99.90